createdAt,value
2023-03-06T00:00:40.783Z,94322.00
2023-03-06T00:01:40.747Z,94322.00
2023-03-06T00:02:40.727Z,94322.00
2023-03-06T00:03:40.719Z,94324.00
2023-03-06T01:37:55.349Z,94250.00
2023-03-06T01:38:55.315Z,94250.00
2023-03-06T01:39:55.249Z,94250.00
2023-03-06T01:40:55.218Z,94248.00
2023-03-06T01:41:55.141Z,94248.00
2023-03-06T01:42:55.122Z,94244.00
2023-03-06T01:43:55.061Z,94244.00
2023-03-06T01:44:55.008Z,94244.00
2023-03-06T01:45:54.976Z,94240.00
2023-03-06T01:46:54.903Z,94244.00
2023-03-06T01:47:54.842Z,94242.00
2023-03-06T01:48:54.801Z,94236.00
2023-03-06T01:49:54.741Z,94234.00
2023-03-06T01:50:54.698Z,94232.00
2023-03-06T01:51:54.654Z,94230.00
2023-03-06T01:52:54.613Z,94228.00
2023-03-06T01:53:54.549Z,94226.00
2023-03-06T01:54:54.533Z,94230.00
2023-03-06T01:55:54.456Z,94222.00
2023-03-06T01:56:54.422Z,94222.00
2023-03-06T01:57:54.360Z,94220.00
2023-03-06T01:58:54.325Z,94219.00
2023-03-06T01:59:54.243Z,94219.00
2023-03-06T02:00:54.242Z,94217.00
2023-03-06T02:01:54.150Z,94217.00
2023-03-06T02:02:54.095Z,94215.00
2023-03-06T02:03:54.063Z,94217.00
2023-03-06T02:04:54.009Z,94215.00
2023-03-06T02:05:53.953Z,94213.00
2023-03-06T02:06:53.921Z,94213.00
2023-03-06T02:07:53.864Z,94209.00
2023-03-06T02:08:53.805Z,94207.00
2023-03-06T02:09:53.737Z,94205.00
2023-03-06T02:10:53.684Z,94207.00
2023-03-06T02:11:53.638Z,94203.00
2023-03-06T02:12:53.588Z,94201.00
2023-03-06T02:13:53.556Z,94199.00
2023-03-06T02:14:53.509Z,94199.00
2023-03-06T02:15:53.427Z,94199.00
2023-03-06T02:16:53.452Z,94199.00
2023-03-06T02:17:53.330Z,94199.00
2023-03-06T02:18:53.285Z,94199.00
2023-03-06T02:19:53.231Z,94199.00
2023-03-06T02:20:53.188Z,94197.00
2023-03-06T02:21:53.135Z,94195.00
2023-03-06T02:22:53.070Z,94195.00
2023-03-06T02:23:53.017Z,94197.00
2023-03-06T02:24:52.981Z,94193.00
2023-03-06T02:25:52.932Z,94191.00
2023-03-06T02:26:52.884Z,94189.00
2023-03-06T02:27:52.827Z,94189.00
2023-03-06T02:28:52.798Z,94187.00
2023-03-06T02:29:52.736Z,94185.00
2023-03-06T02:30:52.805Z,94183.00
2023-03-06T02:31:52.647Z,94181.00
2023-03-06T02:32:52.597Z,94179.00
2023-03-06T02:33:52.543Z,94181.00
2023-03-06T02:34:52.492Z,94175.00
2023-03-06T02:35:52.498Z,94175.00
2023-03-06T02:36:52.412Z,94175.00
2023-03-06T02:37:52.369Z,94172.00
2023-03-06T02:38:52.322Z,94170.00
2023-03-06T02:39:52.264Z,94168.00
2023-03-06T02:40:52.234Z,94162.00
2023-03-06T02:41:52.174Z,94164.00
2023-03-06T02:42:52.121Z,94160.00
2023-03-06T02:43:52.076Z,94156.00
2023-03-06T02:44:52.006Z,94158.00
2023-03-06T02:45:51.995Z,94152.00
2023-03-06T02:46:51.901Z,94150.00
2023-03-06T02:47:51.831Z,94150.00
2023-03-06T02:48:51.779Z,94148.00
2023-03-06T02:49:51.732Z,94148.00
2023-03-06T02:50:51.684Z,94148.00
2023-03-06T02:51:51.637Z,94146.00
2023-03-06T02:52:51.592Z,94144.00
2023-03-06T02:53:51.533Z,94142.00
2023-03-06T02:54:51.472Z,94142.00
2023-03-06T02:55:51.424Z,94140.00
2023-03-06T02:56:51.367Z,94138.00
2023-03-06T02:57:51.314Z,94138.00
2023-03-06T02:58:51.258Z,94136.00
2023-03-06T02:59:51.206Z,94134.00
2023-03-06T03:00:51.172Z,94134.00
2023-03-06T03:01:51.156Z,94134.00
2023-03-06T03:02:51.091Z,94132.00
2023-03-06T03:03:51.037Z,94132.00
2023-03-06T03:04:51.035Z,94130.00
2023-03-06T03:05:50.927Z,94128.00
2023-03-06T03:06:50.878Z,94128.00
2023-03-06T03:07:50.841Z,94126.00
2023-03-06T03:08:50.784Z,94124.00
2023-03-06T03:09:50.743Z,94126.00
2023-03-06T03:10:50.696Z,94122.00
2023-03-06T03:11:50.654Z,94120.00
2023-03-06T03:12:50.605Z,94120.00
2023-03-06T03:13:50.563Z,94118.00
2023-03-06T03:14:50.526Z,94122.00
2023-03-06T03:15:51.187Z,94118.00
2023-03-06T03:16:50.420Z,94118.00
2023-03-06T03:17:50.386Z,94118.00
2023-03-06T03:18:50.366Z,94118.00
2023-03-06T03:19:50.297Z,94118.00
2023-03-06T03:20:50.248Z,94118.00
2023-03-06T03:21:50.204Z,94109.00
2023-03-06T03:22:50.175Z,94107.00
2023-03-06T03:23:50.136Z,94105.00
2023-03-06T03:24:50.171Z,94105.00
2023-03-06T03:25:50.079Z,94103.00
2023-03-06T03:26:50.016Z,94101.00
2023-03-06T03:27:49.983Z,94099.00
2023-03-06T03:28:49.953Z,94097.00
2023-03-06T03:29:49.903Z,94095.00
2023-03-06T03:30:49.924Z,94095.00
2023-03-06T03:31:49.806Z,94095.00
2023-03-06T03:32:49.781Z,94091.00
2023-03-06T03:33:49.715Z,94091.00
2023-03-06T03:34:49.715Z,94089.00
2023-03-06T03:35:49.676Z,94093.00
2023-03-06T03:36:49.609Z,94089.00
2023-03-06T03:37:49.568Z,94085.00
2023-03-06T03:38:49.536Z,94085.00
2023-03-06T03:39:49.481Z,94085.00
2023-03-06T03:40:49.432Z,94083.00
2023-03-06T03:41:49.396Z,94081.00
2023-03-06T03:42:49.347Z,94083.00
2023-03-06T03:43:49.301Z,94079.00
2023-03-06T03:44:49.246Z,94077.00
2023-03-06T03:45:49.212Z,94073.00
2023-03-06T03:46:49.278Z,94073.00
2023-03-06T03:47:49.142Z,94072.00
2023-03-06T03:48:49.075Z,94070.00
2023-03-06T03:49:49.041Z,94070.00
2023-03-06T03:50:49.030Z,94068.00
2023-03-06T03:51:48.977Z,94064.00
2023-03-06T03:52:48.917Z,94068.00
2023-03-06T03:53:49.598Z,94060.00
2023-03-06T03:54:48.818Z,94064.00
2023-03-06T03:55:48.783Z,94064.00
2023-03-06T03:56:48.735Z,94064.00
2023-03-06T03:57:48.700Z,94064.00
2023-03-06T03:58:48.641Z,94062.00
2023-03-06T03:59:48.591Z,94062.00
2023-03-06T04:00:48.551Z,94062.00
2023-03-06T04:01:48.574Z,94060.00
2023-03-06T04:02:48.460Z,94060.00
2023-03-06T04:03:48.432Z,94058.00
2023-03-06T04:04:48.390Z,94054.00
2023-03-06T04:05:48.323Z,94052.00
2023-03-06T04:06:48.302Z,94050.00
2023-03-06T04:07:48.229Z,94050.00
2023-03-06T04:08:48.193Z,94048.00
2023-03-06T04:09:48.152Z,94048.00
2023-03-06T04:10:48.077Z,94046.00
2023-03-06T04:11:48.035Z,94046.00
2023-03-06T04:12:47.995Z,94042.00
2023-03-06T04:13:47.952Z,94038.00
2023-03-06T04:14:47.926Z,94040.00
2023-03-06T04:15:47.859Z,94038.00
2023-03-06T04:16:47.811Z,94038.00
2023-03-06T04:17:47.749Z,94036.00
2023-03-06T04:18:47.719Z,94034.00
2023-03-06T04:19:47.664Z,94034.00
2023-03-06T04:20:47.616Z,94032.00
2023-03-06T04:21:47.571Z,94030.00
2023-03-06T04:22:47.552Z,94030.00
2023-03-06T04:23:47.501Z,94026.00
2023-03-06T04:24:47.437Z,94026.00
2023-03-06T04:25:47.391Z,94028.00
2023-03-06T04:26:47.338Z,94026.00
2023-03-06T04:27:47.285Z,94025.00
2023-03-06T04:28:47.248Z,94025.00
2023-03-06T04:29:47.190Z,94023.00
2023-03-06T04:30:47.156Z,94021.00
2023-03-06T04:31:47.178Z,94019.00
2023-03-06T04:32:47.077Z,94019.00
2023-03-06T04:33:47.057Z,94019.00
2023-03-06T04:34:46.980Z,94017.00
2023-03-06T04:35:46.954Z,94017.00
2023-03-06T04:36:46.911Z,94019.00
2023-03-06T04:37:46.869Z,94017.00
2023-03-06T04:38:46.877Z,94019.00
2023-03-06T04:39:46.783Z,94017.00
2023-03-06T04:40:46.745Z,94017.00
2023-03-06T04:41:46.700Z,94017.00
2023-03-06T04:42:46.656Z,94019.00
2023-03-06T04:43:46.618Z,94019.00
2023-03-06T04:44:46.573Z,94019.00
2023-03-06T04:45:46.604Z,94021.00
2023-03-06T04:46:46.483Z,94019.00
2023-03-06T04:47:46.964Z,94017.00
2023-03-06T04:48:46.378Z,94017.00
2023-03-06T04:49:46.332Z,94015.00
2023-03-06T04:50:46.287Z,94013.00
2023-03-06T04:51:46.243Z,94015.00
2023-03-06T04:52:46.193Z,94017.00
2023-03-06T04:53:46.143Z,94019.00
2023-03-06T04:54:46.126Z,94019.00
2023-03-06T04:55:46.056Z,94017.00
2023-03-06T04:56:46.005Z,94019.00
2023-03-06T04:57:45.957Z,94019.00
2023-03-06T04:58:45.897Z,94019.00
2023-03-06T04:59:45.866Z,94019.00
2023-03-06T05:00:45.890Z,94017.00
2023-03-06T05:01:45.770Z,94017.00
2023-03-06T05:02:45.742Z,94017.00
2023-03-06T05:03:45.682Z,94017.00
2023-03-06T05:04:45.640Z,94015.00
2023-03-06T05:05:45.598Z,94017.00
2023-03-06T05:06:45.549Z,94017.00
2023-03-06T05:07:45.516Z,94019.00
2023-03-06T05:08:45.462Z,94017.00
2023-03-06T05:09:44.435Z,94017.00
2023-03-06T05:10:45.385Z,94017.00
2023-03-06T05:11:45.317Z,94015.00
2023-03-06T05:12:45.274Z,94013.00
2023-03-06T05:13:45.229Z,94013.00
2023-03-06T05:14:47.720Z,94013.00
2023-03-06T05:15:45.120Z,94015.00
2023-03-06T05:16:45.153Z,94019.00
2023-03-06T05:17:45.009Z,94017.00
2023-03-06T05:18:44.956Z,94015.00
2023-03-06T05:19:44.926Z,94017.00
2023-03-06T05:20:44.880Z,94015.00
2023-03-06T05:21:44.833Z,94015.00
2023-03-06T05:22:44.811Z,94017.00
2023-03-06T05:23:44.742Z,94015.00
2023-03-06T05:24:44.702Z,94015.00
2023-03-06T05:25:44.661Z,94015.00
2023-03-06T05:26:44.638Z,94015.00
2023-03-06T05:27:44.561Z,94015.00
2023-03-06T05:28:44.554Z,94017.00
2023-03-06T05:29:44.485Z,94017.00
2023-03-06T05:30:44.432Z,94019.00
2023-03-06T05:31:44.451Z,94019.00
2023-03-06T05:32:44.348Z,94017.00
2023-03-06T05:33:44.280Z,94017.00
2023-03-06T05:34:44.229Z,94013.00
2023-03-06T05:35:44.256Z,94013.00
2023-03-06T05:36:44.161Z,94015.00
2023-03-06T05:37:44.120Z,94015.00
2023-03-06T05:38:44.058Z,94013.00
2023-03-06T05:39:44.006Z,94013.00
2023-03-06T05:40:43.999Z,94013.00
2023-03-06T05:41:43.932Z,94011.00
2023-03-06T05:42:43.932Z,94011.00
2023-03-06T05:43:43.840Z,94015.00
2023-03-06T05:44:43.872Z,94015.00
2023-03-06T05:45:43.785Z,94015.00
2023-03-06T05:46:43.733Z,94015.00
2023-03-06T05:47:43.688Z,94017.00
2023-03-06T05:48:45.320Z,94017.00
2023-03-06T05:49:43.608Z,94017.00
2023-03-06T05:50:43.573Z,94015.00
2023-03-06T05:51:43.534Z,94017.00
2023-03-06T05:52:43.496Z,94021.00
2023-03-06T05:53:43.471Z,94023.00
2023-03-06T05:54:43.404Z,94023.00
2023-03-06T05:55:43.364Z,94023.00
2023-03-06T05:56:43.314Z,94023.00
2023-03-06T05:57:43.268Z,94023.00
2023-03-06T05:58:43.239Z,94023.00
2023-03-06T05:59:43.327Z,94023.00
2023-03-06T06:00:43.122Z,94021.00
2023-03-06T06:01:43.093Z,94023.00
2023-03-06T06:02:43.084Z,94025.00
2023-03-06T06:03:42.998Z,94026.00
2023-03-06T06:04:42.936Z,94025.00
2023-03-06T06:05:42.899Z,94026.00
2023-03-06T06:06:42.845Z,94025.00
2023-03-06T06:07:42.812Z,94028.00
2023-03-06T06:08:42.766Z,94028.00
2023-03-06T06:09:42.725Z,94028.00
2023-03-06T06:10:42.680Z,94030.00
2023-03-06T06:11:42.643Z,94030.00
2023-03-06T06:12:42.596Z,94034.00
2023-03-06T06:13:42.555Z,94032.00
2023-03-06T06:14:42.542Z,94032.00
2023-03-06T06:15:42.535Z,94034.00
2023-03-06T06:16:42.415Z,94034.00
2023-03-06T06:17:42.394Z,94034.00
2023-03-06T06:18:42.353Z,94034.00
2023-03-06T06:19:42.314Z,94036.00
2023-03-06T06:20:42.279Z,94034.00
2023-03-06T06:21:42.236Z,94034.00
2023-03-06T06:22:42.198Z,94036.00
2023-03-06T06:23:42.152Z,94034.00
2023-03-06T06:24:42.094Z,94032.00
2023-03-06T06:25:42.044Z,94034.00
2023-03-06T06:26:42.000Z,94036.00
2023-03-06T06:27:41.936Z,94038.00
2023-03-06T06:28:41.911Z,94036.00
2023-03-06T06:29:41.841Z,94034.00
2023-03-06T06:30:41.816Z,94038.00
2023-03-06T06:31:41.743Z,94036.00
2023-03-06T06:32:41.740Z,94034.00
2023-03-06T06:33:41.677Z,94036.00
2023-03-06T06:34:41.588Z,94034.00
2023-03-06T06:35:41.587Z,94034.00
2023-03-06T06:36:41.496Z,94038.00
2023-03-06T06:37:42.454Z,94040.00
2023-03-06T06:38:41.464Z,94036.00
2023-03-06T06:39:41.371Z,94038.00
2023-03-06T06:40:41.322Z,94040.00
2023-03-06T06:41:59.302Z,94036.00
2023-03-06T06:42:41.233Z,94034.00
2023-03-06T06:43:41.181Z,94032.00
2023-03-06T06:44:41.170Z,94030.00
2023-03-06T06:45:41.056Z,94032.00
2023-03-06T06:47:21.970Z,94030.00
2023-03-06T06:47:41.093Z,94028.00
2023-03-06T06:48:40.923Z,94032.00
2023-03-06T06:49:40.884Z,94032.00
2023-03-06T06:50:40.841Z,94032.00
2023-03-06T06:51:40.959Z,94034.00
2023-03-06T06:52:43.897Z,94034.00
2023-03-06T06:53:48.083Z,94028.00
2023-03-06T06:54:40.686Z,94032.00
2023-03-06T06:55:40.582Z,94030.00
2023-03-06T06:56:40.519Z,94034.00
2023-03-06T06:57:40.463Z,94030.00
2023-03-06T06:58:40.434Z,94030.00
2023-03-06T06:59:40.708Z,94032.00
2023-03-06T07:00:43.524Z,94030.00
2023-03-06T07:01:40.789Z,94030.00
2023-03-06T07:02:40.255Z,94034.00
2023-03-06T07:03:43.470Z,94032.00
2023-03-06T07:04:52.403Z,94030.00
2023-03-06T07:05:40.106Z,94030.00
2023-03-06T07:06:40.185Z,94034.00
2023-03-06T07:07:39.996Z,94036.00
2023-03-06T07:08:39.944Z,94034.00
2023-03-06T07:09:39.860Z,94034.00
2023-03-06T07:10:39.980Z,94036.00
2023-03-06T07:11:40.205Z,94034.00
2023-03-06T07:12:39.724Z,94040.00
2023-03-06T07:13:40.053Z,94036.00
2023-03-06T07:14:39.647Z,94036.00
2023-03-06T07:15:39.717Z,94038.00
2023-03-06T07:16:39.718Z,94040.00
2023-03-06T07:17:40.484Z,94038.00
2023-03-06T07:18:39.711Z,94040.00
2023-03-06T07:19:39.673Z,94040.00
2023-03-06T07:20:39.685Z,94040.00
2023-03-06T07:21:39.304Z,94042.00
2023-03-06T07:22:50.409Z,94044.00
2023-03-06T07:23:39.197Z,94040.00
2023-03-06T07:24:39.151Z,94040.00
2023-03-06T07:25:39.101Z,94042.00
2023-03-06T07:26:39.204Z,94040.00
2023-03-06T07:27:39.058Z,94042.00
2023-03-06T07:28:51.589Z,94042.00
2023-03-06T07:29:38.948Z,94042.00
2023-03-06T07:30:39.192Z,94042.00
2023-03-06T07:31:38.913Z,94042.00
2023-03-06T07:32:38.944Z,94042.00
2023-03-06T07:33:38.756Z,94042.00
2023-03-06T07:34:38.730Z,94044.00
2023-03-06T07:35:38.673Z,94042.00
2023-03-06T07:36:38.629Z,94042.00
2023-03-06T07:37:38.530Z,94042.00
2023-03-06T07:38:38.694Z,94042.00
2023-03-06T07:39:38.433Z,94044.00
2023-03-06T07:40:38.364Z,94046.00
2023-03-06T07:41:38.336Z,94044.00
2023-03-06T07:42:38.280Z,94042.00
2023-03-06T07:43:38.239Z,94042.00
2023-03-06T07:44:38.197Z,94044.00
2023-03-06T07:45:38.142Z,94046.00
2023-03-06T07:46:38.159Z,94048.00
2023-03-06T07:47:38.198Z,94046.00
2023-03-06T07:48:38.048Z,94046.00
2023-03-06T07:49:37.967Z,94046.00
2023-03-06T07:50:38.227Z,94048.00
2023-03-06T07:51:37.872Z,94044.00
2023-03-06T07:52:41.164Z,94048.00
2023-03-06T07:53:37.900Z,94046.00
2023-03-06T07:54:38.715Z,94046.00
2023-03-06T07:55:37.697Z,94046.00
2023-03-06T07:56:37.633Z,94050.00
2023-03-06T07:57:37.710Z,94050.00
2023-03-06T07:58:37.532Z,94052.00
2023-03-06T07:59:37.473Z,94052.00
2023-03-06T08:00:37.706Z,94048.00
2023-03-06T08:01:37.377Z,94050.00
2023-03-06T08:02:37.779Z,94046.00
2023-03-06T08:03:37.341Z,94046.00
2023-03-06T08:04:37.217Z,94048.00
2023-03-06T08:05:37.152Z,94046.00
2023-03-06T08:06:37.141Z,94048.00
2023-03-06T08:07:37.213Z,94046.00
2023-03-06T08:08:36.991Z,94044.00
2023-03-06T08:09:37.957Z,94042.00
2023-03-06T08:10:36.919Z,94046.00
2023-03-06T08:11:36.855Z,94044.00
2023-03-06T08:12:36.773Z,94048.00
2023-03-06T08:13:37.231Z,94050.00
2023-03-06T08:14:36.686Z,94052.00
2023-03-06T08:15:36.646Z,94052.00
2023-03-06T08:16:37.736Z,94052.00
2023-03-06T08:17:36.535Z,94054.00
2023-03-06T08:18:36.767Z,94046.00
2023-03-06T08:19:36.417Z,94040.00
2023-03-06T08:20:36.402Z,94040.00
2023-03-06T08:21:36.347Z,94042.00
2023-03-06T08:22:36.309Z,94040.00
2023-03-06T08:23:36.752Z,94040.00
2023-03-06T08:24:36.191Z,94038.00
2023-03-06T08:25:37.129Z,94044.00
2023-03-06T08:26:36.118Z,94046.00
2023-03-06T08:27:36.044Z,94052.00
2023-03-06T08:28:36.229Z,94058.00
2023-03-06T08:29:35.943Z,94056.00
2023-03-06T08:30:35.905Z,94056.00
2023-03-06T08:31:35.936Z,94050.00
2023-03-06T08:32:36.296Z,94046.00
2023-03-06T08:33:35.757Z,94046.00
2023-03-06T08:34:35.677Z,94044.00
2023-03-06T08:35:35.672Z,94040.00
2023-03-06T08:36:35.574Z,94046.00
2023-03-06T08:37:36.499Z,94052.00
2023-03-06T08:38:35.484Z,94042.00
2023-03-06T08:39:35.426Z,94054.00
2023-03-06T08:40:35.714Z,94050.00
2023-03-06T08:41:35.306Z,94048.00
2023-03-06T08:42:35.241Z,94052.00
2023-03-06T08:43:35.219Z,94058.00
2023-03-06T08:44:35.140Z,94060.00
2023-03-06T08:45:35.163Z,94054.00
2023-03-06T08:46:35.091Z,94050.00
2023-03-06T08:47:35.225Z,94046.00
2023-03-06T08:48:34.940Z,94046.00
2023-03-06T08:49:35.233Z,94042.00
2023-03-06T08:50:34.838Z,94040.00
2023-03-06T08:51:34.979Z,94042.00
2023-03-06T08:52:34.731Z,94042.00
2023-03-06T08:53:43.006Z,94044.00
2023-03-06T08:54:34.662Z,94046.00
2023-03-06T08:55:34.544Z,94046.00
2023-03-06T08:56:50.096Z,94044.00
2023-03-06T08:57:34.438Z,94040.00
2023-03-06T08:58:34.732Z,94034.00
2023-03-06T08:59:34.332Z,94034.00
2023-03-06T09:00:34.304Z,94036.00
2023-03-06T09:01:34.246Z,94038.00
2023-03-06T09:02:34.201Z,94040.00
2023-03-06T09:03:34.218Z,94036.00
2023-03-06T09:04:41.441Z,94036.00
2023-03-06T09:05:48.726Z,94034.00
2023-03-06T09:06:33.918Z,94036.00
2023-03-06T09:07:33.851Z,94042.00
2023-03-06T09:08:34.227Z,94042.00
2023-03-06T09:09:33.751Z,94040.00
2023-03-06T09:10:33.759Z,94044.00
2023-03-06T09:11:33.728Z,94050.00
2023-03-06T09:12:47.354Z,94052.00
2023-03-06T09:13:33.489Z,94052.00
2023-03-06T09:14:33.441Z,94052.00
2023-03-06T09:15:33.379Z,94046.00
2023-03-06T09:16:33.400Z,94044.00
2023-03-06T09:17:33.330Z,94046.00
2023-03-06T09:18:33.181Z,94048.00
2023-03-06T09:19:33.225Z,94050.00
2023-03-06T09:20:34.058Z,94050.00
2023-03-06T09:21:33.005Z,94044.00
2023-03-06T09:22:32.952Z,94042.00
2023-03-06T09:23:33.257Z,94040.00
2023-03-06T09:24:32.854Z,94042.00
2023-03-06T09:25:32.780Z,94044.00
2023-03-06T09:26:45.182Z,94044.00
2023-03-06T09:27:32.671Z,94044.00
2023-03-06T09:28:32.631Z,94046.00
2023-03-06T09:29:32.734Z,94044.00
2023-03-06T09:30:32.514Z,94050.00
2023-03-06T09:31:33.448Z,94050.00
2023-03-06T09:32:32.478Z,94052.00
2023-03-06T09:33:32.795Z,94048.00
2023-03-06T09:34:32.256Z,94046.00
2023-03-06T09:35:32.253Z,94046.00
2023-03-06T09:36:40.149Z,94046.00
2023-03-06T09:37:32.072Z,94050.00
2023-03-06T09:38:32.001Z,94050.00
2023-03-06T09:39:32.277Z,94052.00
2023-03-06T09:40:31.888Z,94050.00
2023-03-06T09:41:32.248Z,94048.00
2023-03-06T09:42:30.776Z,94054.00
2023-03-06T09:43:31.699Z,94052.00
2023-03-06T09:44:35.020Z,94048.00
2023-03-06T09:45:31.544Z,94054.00
2023-03-06T09:46:31.810Z,94048.00
2023-03-06T09:47:31.574Z,94052.00
2023-03-06T09:48:31.797Z,94052.00
2023-03-06T09:49:32.054Z,94046.00
2023-03-06T09:50:31.209Z,94042.00
2023-03-06T09:51:31.168Z,94042.00
2023-03-06T09:52:31.114Z,94040.00
2023-03-06T09:53:31.057Z,94040.00
2023-03-06T09:54:31.239Z,94038.00
2023-03-06T09:55:30.949Z,94032.00
2023-03-06T09:56:31.241Z,94034.00
2023-03-06T09:57:30.837Z,94036.00
2023-03-06T09:58:30.865Z,94038.00
2023-03-06T09:59:30.743Z,94040.00
2023-03-06T10:00:30.677Z,94032.00
2023-03-06T10:01:30.772Z,94036.00
2023-03-06T10:02:30.874Z,94034.00
2023-03-06T10:03:30.558Z,94030.00
2023-03-06T10:04:30.496Z,94032.00
2023-03-06T10:05:30.828Z,94030.00
2023-03-06T10:06:30.323Z,94032.00
2023-03-06T10:07:30.266Z,94028.00
2023-03-06T10:08:30.893Z,94032.00
2023-03-06T10:09:30.153Z,94032.00
2023-03-06T10:10:30.242Z,94032.00
2023-03-06T10:11:30.118Z,94030.00
2023-03-06T10:12:30.247Z,94028.00
2023-03-06T10:13:29.910Z,94028.00
2023-03-06T10:14:29.902Z,94025.00
2023-03-06T10:15:29.825Z,94023.00
2023-03-06T10:16:29.777Z,94019.00
2023-03-06T10:17:29.672Z,94019.00
2023-03-06T10:18:29.753Z,94017.00
2023-03-06T10:19:29.560Z,94019.00
2023-03-06T10:20:29.759Z,94019.00
2023-03-06T10:21:29.794Z,94017.00
2023-03-06T10:22:29.359Z,94017.00
2023-03-06T10:23:29.338Z,94013.00
2023-03-06T10:24:29.292Z,94009.00
2023-03-06T10:25:29.324Z,94003.00
2023-03-06T10:26:29.283Z,94003.00
2023-03-06T10:27:29.073Z,94003.00
2023-03-06T10:28:29.135Z,93997.00
2023-03-06T10:29:28.926Z,93995.00
2023-03-06T10:30:29.306Z,93997.00
2023-03-06T10:31:28.891Z,93993.00
2023-03-06T10:32:34.282Z,93993.00
2023-03-06T10:33:28.702Z,93993.00
2023-03-06T10:34:28.791Z,93993.00
2023-03-06T10:35:30.468Z,93989.00
2023-03-06T10:36:37.194Z,93991.00
2023-03-06T10:37:28.451Z,93983.00
2023-03-06T10:38:28.416Z,93985.00
2023-03-06T10:39:28.375Z,93987.00
2023-03-06T10:40:28.275Z,93985.00
2023-03-06T10:41:28.366Z,93985.00
2023-03-06T10:42:29.257Z,93981.00
2023-03-06T10:43:28.297Z,93983.00
2023-03-06T10:44:28.418Z,93979.00
2023-03-06T10:45:29.940Z,93981.00
2023-03-06T10:46:28.229Z,93979.00
2023-03-06T10:47:27.874Z,93979.00
2023-03-06T10:48:28.899Z,93975.00
2023-03-06T10:49:27.758Z,93977.00
2023-03-06T10:50:27.685Z,93975.00
2023-03-06T10:51:27.627Z,93973.00
2023-03-06T10:52:28.184Z,93968.00
2023-03-06T10:53:27.768Z,93964.00
2023-03-06T10:54:27.416Z,93964.00
2023-03-06T10:55:27.386Z,93960.00
2023-03-06T10:56:27.291Z,93958.00
2023-03-06T10:57:27.241Z,93956.00
2023-03-06T10:58:27.308Z,93952.00
2023-03-06T10:59:27.301Z,93952.00
2023-03-06T11:00:27.077Z,93950.00
2023-03-06T11:01:27.009Z,93950.00
2023-03-06T11:02:27.000Z,93948.00
2023-03-06T11:03:27.273Z,93948.00
2023-03-06T11:04:26.894Z,93948.00
2023-03-06T11:05:26.817Z,93952.00
2023-03-06T11:06:26.733Z,93954.00
2023-03-06T11:07:27.367Z,93956.00
2023-03-06T11:08:26.678Z,93958.00
2023-03-06T11:09:26.628Z,93956.00
2023-03-06T11:10:26.559Z,93962.00
2023-03-06T11:11:37.200Z,93956.00
2023-03-06T11:12:26.452Z,93954.00
2023-03-06T11:13:26.398Z,93950.00
2023-03-06T11:14:27.700Z,93948.00
2023-03-06T11:15:26.289Z,93944.00
2023-03-06T11:16:29.576Z,93950.00
2023-03-06T11:17:26.174Z,93948.00
2023-03-06T11:18:26.135Z,93946.00
2023-03-06T11:19:26.276Z,93940.00
2023-03-06T11:20:25.990Z,93940.00
2023-03-06T11:21:25.943Z,93936.00
2023-03-06T11:22:25.894Z,93934.00
2023-03-06T11:23:26.285Z,93938.00
2023-03-06T11:24:25.770Z,93934.00
2023-03-06T11:25:25.711Z,93930.00
2023-03-06T11:26:25.803Z,93928.00
2023-03-06T11:27:25.608Z,93926.00
2023-03-06T11:28:25.785Z,93928.00
2023-03-06T11:29:25.888Z,93926.00
2023-03-06T11:30:25.550Z,93924.00
2023-03-06T11:31:25.852Z,93926.00
2023-03-06T11:32:25.928Z,93923.00
2023-03-06T11:33:25.904Z,93921.00
2023-03-06T11:34:25.780Z,93921.00
2023-03-06T11:35:25.245Z,93917.00
2023-03-06T11:36:25.116Z,93917.00
2023-03-06T11:37:25.279Z,93917.00
2023-03-06T11:38:25.000Z,93915.00
2023-03-06T11:39:25.027Z,93917.00
2023-03-06T11:40:24.883Z,93911.00
2023-03-06T11:41:24.842Z,93909.00
2023-03-06T11:42:24.802Z,93913.00
2023-03-06T11:43:24.693Z,93909.00
2023-03-06T11:44:24.797Z,93905.00
2023-03-06T11:45:24.593Z,93903.00
2023-03-06T11:46:24.866Z,93901.00
2023-03-06T11:47:24.667Z,93899.00
2023-03-06T11:48:24.402Z,93891.00
2023-03-06T11:49:24.400Z,93897.00
2023-03-06T11:50:24.434Z,93887.00
2023-03-06T11:51:24.320Z,93885.00
2023-03-06T11:52:24.152Z,93881.00
2023-03-06T11:53:24.093Z,93881.00
2023-03-06T11:54:24.028Z,93883.00
2023-03-06T11:55:23.982Z,93883.00
2023-03-06T11:56:23.926Z,93887.00
2023-03-06T11:57:24.289Z,93885.00
2023-03-06T11:59:23.789Z,93887.00
2023-03-06T12:00:23.660Z,93877.00
2023-03-06T12:02:23.559Z,93876.00
2023-03-06T12:03:23.792Z,93872.00
2023-03-06T12:04:23.397Z,93872.00
2023-03-06T12:05:23.394Z,93872.00
2023-03-06T12:06:23.296Z,93872.00
2023-03-06T12:07:23.197Z,93872.00
2023-03-06T12:08:23.295Z,93870.00
2023-03-06T12:09:23.306Z,93868.00
2023-03-06T12:10:22.995Z,93866.00
2023-03-06T12:11:23.093Z,93866.00
2023-03-06T12:12:22.990Z,93866.00
2023-03-06T12:13:22.831Z,93864.00
2023-03-06T12:14:23.003Z,93862.00
2023-03-06T12:21:22.369Z,93862.00
2023-03-06T12:23:22.269Z,93862.00
2023-03-06T12:24:22.210Z,93854.00
2023-03-06T12:26:22.115Z,93852.00
2023-03-06T12:27:22.301Z,93852.00
2023-03-06T12:28:21.999Z,93852.00
2023-03-06T12:29:22.304Z,93854.00
2023-03-06T12:30:22.900Z,93852.00
2023-03-06T12:32:21.888Z,93850.00
2023-03-06T12:33:21.787Z,93852.00
2023-03-06T12:34:21.812Z,93854.00
2023-03-06T12:35:21.669Z,93852.00
2023-03-06T12:36:21.576Z,93850.00
2023-03-06T12:37:21.805Z,93852.00
2023-03-06T12:38:21.491Z,93864.00
2023-03-06T12:39:21.397Z,93862.00
2023-03-06T12:40:21.351Z,93852.00
2023-03-06T12:41:21.759Z,93848.00
2023-03-06T12:42:23.479Z,93846.00
2023-03-06T12:43:21.214Z,93850.00
2023-03-06T12:44:21.153Z,93848.00
2023-03-06T12:45:21.747Z,93844.00
2023-03-06T12:46:21.152Z,93848.00
2023-03-06T12:47:20.996Z,93846.00
2023-03-06T12:48:20.952Z,93848.00
2023-03-06T12:49:31.561Z,93848.00
2023-03-06T12:50:21.317Z,93854.00
2023-03-06T12:51:20.792Z,93850.00
2023-03-06T12:52:21.605Z,93854.00
2023-03-06T12:53:20.700Z,93852.00
2023-03-06T12:54:20.669Z,93852.00
2023-03-06T12:55:24.322Z,93862.00
2023-03-06T12:56:20.541Z,93862.00
2023-03-06T12:57:20.972Z,93852.00
2023-03-06T12:58:20.448Z,93848.00
2023-03-06T12:59:20.401Z,93852.00
2023-03-06T13:00:20.819Z,93854.00
2023-03-06T13:01:20.396Z,93852.00
2023-03-06T13:02:20.348Z,93862.00
2023-03-06T13:03:20.320Z,93862.00
2023-03-06T13:04:20.164Z,93862.00
2023-03-06T13:05:20.122Z,93854.00
2023-03-06T13:06:20.065Z,93864.00
2023-03-06T13:07:20.015Z,93864.00
2023-03-06T13:08:20.323Z,93850.00
2023-03-06T13:09:21.231Z,93864.00
2023-03-06T13:10:19.903Z,93862.00
2023-03-06T13:11:20.573Z,93870.00
2023-03-06T13:12:19.759Z,93872.00
2023-03-06T13:13:19.833Z,93870.00
2023-03-06T13:14:19.640Z,93872.00
2023-03-06T13:15:19.615Z,93870.00
2023-03-06T13:16:19.638Z,93870.00
2023-03-06T13:17:19.496Z,93868.00
2023-03-06T13:18:19.477Z,93864.00
2023-03-06T13:19:19.839Z,93868.00
2023-03-06T13:20:19.352Z,93864.00
2023-03-06T13:21:19.302Z,93868.00
2023-03-06T13:22:19.329Z,93874.00
2023-03-06T13:23:19.223Z,93874.00
2023-03-06T13:24:19.160Z,93874.00
2023-03-06T13:25:19.174Z,93874.00
2023-03-06T13:26:19.095Z,93874.00
2023-03-06T13:27:19.017Z,93874.00
2023-03-06T13:28:18.968Z,93876.00